createdAt,value
2023-04-22T06:06:55.243Z,7.93
2023-04-22T06:11:58.250Z,8.18
2023-04-22T06:17:00.940Z,8.46
2023-04-22T06:22:03.019Z,8.75
2023-04-22T06:27:05.472Z,9.03
2023-04-22T06:32:07.305Z,9.29
2023-04-22T06:37:09.578Z,9.56
2023-04-22T06:42:12.076Z,9.85
2023-04-22T06:47:56.186Z,10.16
2023-04-22T06:53:05.212Z,10.43
2023-04-22T06:58:07.274Z,10.68
2023-04-22T07:03:09.212Z,10.95
2023-04-22T07:08:12.104Z,11.25
2023-04-22T07:13:14.119Z,11.54
2023-04-22T07:18:16.405Z,11.84
2023-04-22T07:23:19.066Z,12.12
2023-04-22T07:28:21.184Z,12.40
2023-04-22T07:33:23.350Z,12.67
2023-04-22T07:38:26.089Z,12.94
2023-04-22T07:43:27.991Z,13.20
2023-04-22T07:48:30.693Z,13.45
2023-04-22T07:53:33.345Z,13.69
2023-04-22T07:58:35.268Z,13.93
2023-04-22T08:03:37.530Z,14.13
2023-04-22T08:08:40.753Z,14.35
2023-04-22T08:13:42.860Z,14.60
2023-04-22T08:18:45.478Z,14.82
2023-04-22T08:23:47.888Z,15.06
2023-04-22T08:28:50.115Z,15.28
2023-04-22T08:33:52.110Z,15.47
2023-04-22T08:38:54.947Z,15.66
2023-04-22T08:43:57.897Z,15.87
2023-04-22T08:49:06.127Z,16.10
2023-04-22T08:54:08.390Z,16.29
2023-04-22T08:59:12.112Z,16.45
2023-04-22T09:04:15.574Z,16.63
2023-04-22T09:09:20.242Z,16.83
2023-04-22T09:14:22.744Z,16.97
2023-04-22T09:19:25.704Z,17.12
2023-04-22T09:24:27.738Z,17.30
2023-04-22T09:29:31.919Z,17.46
2023-04-22T09:34:34.452Z,17.55
2023-04-22T09:39:36.413Z,17.62
2023-04-22T09:44:39.225Z,17.71
2023-04-22T09:49:46.424Z,17.82
2023-04-22T09:54:52.702Z,17.95
2023-04-22T09:59:59.010Z,18.09
2023-04-22T10:05:01.933Z,18.19
2023-04-22T10:10:04.553Z,18.28
2023-04-22T10:15:08.174Z,18.40
2023-04-22T10:20:16.399Z,18.54
2023-04-22T10:25:23.728Z,18.68
2023-04-22T10:30:31.460Z,18.76
2023-04-22T10:35:33.807Z,18.85
2023-04-22T10:40:35.894Z,18.97
2023-04-22T10:45:39.470Z,19.08
2023-04-22T10:50:41.701Z,19.16
2023-04-22T10:55:52.161Z,19.21
2023-04-22T11:01:00.213Z,19.17
2023-04-22T11:06:19.738Z,19.27
2023-04-22T11:11:22.346Z,19.41
2023-04-22T11:16:24.456Z,19.55
2023-04-22T11:21:27.790Z,19.64
2023-04-22T11:26:35.419Z,19.75
2023-04-22T11:31:37.935Z,19.83
2023-04-22T11:36:46.635Z,19.92
2023-04-22T11:41:48.830Z,19.89
2023-04-22T11:46:51.436Z,19.91
2023-04-22T11:51:57.096Z,19.99
2023-04-22T11:57:02.497Z,19.99
2023-04-22T12:02:05.891Z,20.03
2023-04-22T12:07:08.194Z,20.08
2023-04-22T12:12:10.840Z,20.12
2023-04-22T12:17:13.448Z,20.14
2023-04-22T12:22:26.992Z,20.17
2023-04-22T12:27:29.178Z,20.20
2023-04-22T12:32:31.257Z,20.17
2023-04-22T12:37:33.090Z,20.23
2023-04-22T12:42:35.180Z,20.29
2023-04-22T12:47:37.896Z,20.28
2023-04-22T12:52:39.875Z,20.26
2023-04-22T12:57:41.794Z,20.22
2023-04-22T13:02:45.820Z,20.19
2023-04-22T13:07:56.425Z,20.18
2023-04-22T13:18:13.838Z,20.12
2023-04-22T13:23:17.298Z,20.12
2023-04-22T13:28:19.668Z,20.15
2023-04-22T13:33:22.535Z,20.20
2023-04-22T13:38:25.217Z,20.26
2023-04-22T13:43:27.366Z,20.24
2023-04-22T13:48:30.704Z,20.23
2023-04-22T13:53:34.518Z,20.23
2023-04-22T13:58:36.482Z,20.21
2023-04-22T14:03:39.106Z,20.25
2023-04-22T14:08:41.448Z,20.36
2023-04-22T14:13:45.410Z,20.45
2023-04-22T14:18:48.042Z,20.47
2023-04-22T14:23:50.443Z,20.52
2023-04-22T14:28:52.390Z,20.55
2023-04-22T14:33:54.362Z,20.56
2023-04-22T14:38:56.422Z,20.59
2023-04-22T14:43:58.558Z,20.66
2023-04-22T14:49:01.080Z,20.75
2023-04-22T14:54:03.591Z,20.87
2023-04-22T14:59:05.635Z,20.93
2023-04-22T15:04:08.233Z,20.91
2023-04-22T15:09:11.098Z,20.87
2023-04-22T15:14:14.422Z,20.83
2023-04-22T15:19:17.507Z,20.82
2023-04-22T15:24:22.674Z,20.77
2023-04-22T15:29:24.696Z,20.74
2023-04-22T15:34:27.164Z,20.75
2023-04-22T15:39:29.028Z,20.73
2023-04-22T15:44:31.285Z,20.72
2023-04-22T15:49:36.943Z,20.70
2023-04-22T15:54:40.455Z,20.63
2023-04-22T15:59:42.883Z,20.50
2023-04-22T16:04:45.319Z,20.38
2023-04-22T16:09:47.269Z,20.36
2023-04-22T16:14:49.681Z,20.45
2023-04-22T16:19:51.851Z,20.34
2023-04-22T16:24:53.909Z,20.17
2023-04-22T16:29:56.037Z,20.00
2023-04-22T16:34:58.025Z,19.84
2023-04-22T16:40:01.101Z,19.69
2023-04-22T16:45:03.396Z,19.54
2023-04-22T16:50:06.809Z,19.41
2023-04-22T16:55:09.523Z,19.27
2023-04-22T17:00:11.885Z,19.09
2023-04-22T17:05:14.380Z,18.90
2023-04-22T17:10:16.269Z,18.69
2023-04-22T17:15:18.686Z,18.46
2023-04-22T17:20:20.741Z,18.20
2023-04-22T17:25:23.914Z,17.95
2023-04-22T17:30:25.799Z,17.68
2023-04-22T17:35:27.790Z,17.41
2023-04-22T17:40:29.663Z,17.13
2023-04-22T17:45:31.936Z,16.86
2023-04-22T17:50:34.231Z,16.59
2023-04-22T17:55:36.190Z,16.33
2023-04-22T18:00:38.421Z,16.06
2023-04-22T18:05:43.243Z,15.81
2023-04-22T18:10:45.459Z,15.57
2023-04-22T18:15:48.636Z,15.33
2023-04-22T18:20:50.747Z,15.08
2023-04-22T18:25:54.473Z,14.85
2023-04-22T18:30:56.328Z,14.62
2023-04-22T18:35:59.933Z,14.43
2023-04-22T18:41:02.109Z,14.26
2023-04-22T18:46:04.418Z,14.10
2023-04-22T18:51:06.924Z,13.96
2023-04-22T18:56:08.989Z,13.84
2023-04-22T19:01:11.405Z,13.71
2023-04-22T19:06:14.357Z,13.61
2023-04-22T19:11:17.510Z,13.47
2023-04-22T19:16:19.657Z,13.31
2023-04-22T19:21:22.108Z,13.15
2023-04-22T19:26:24.521Z,12.97
2023-04-22T19:31:28.344Z,12.77
2023-04-22T19:36:31.772Z,12.55
2023-04-22T19:41:34.100Z,12.36
2023-04-22T19:46:38.489Z,12.19
2023-04-22T19:51:42.322Z,12.04
2023-04-22T19:56:46.386Z,11.92
2023-04-22T20:01:48.609Z,11.82
2023-04-22T20:06:52.433Z,11.66
2023-04-22T20:11:55.006Z,11.51
2023-04-22T20:16:58.170Z,11.38
2023-04-22T20:22:01.143Z,11.29
2023-04-22T20:27:04.203Z,11.20
2023-04-22T20:32:07.388Z,11.10
2023-04-22T20:37:13.080Z,10.97
2023-04-22T20:42:15.324Z,10.83
2023-04-22T20:47:17.811Z,10.77
2023-04-22T20:52:19.946Z,10.73
2023-04-22T20:57:23.115Z,10.63
2023-04-22T21:02:26.485Z,10.51
2023-04-22T21:07:30.826Z,10.38
2023-04-22T21:12:35.898Z,10.27
2023-04-22T21:17:41.828Z,10.13
2023-04-22T21:22:45.335Z,10.01
2023-04-22T21:27:48.272Z,9.90
2023-04-22T21:32:52.586Z,9.82
2023-04-22T21:37:55.564Z,9.74
2023-04-22T21:43:00.661Z,9.66
2023-04-22T21:48:08.941Z,9.60
2023-04-22T21:53:31.553Z,9.55
2023-04-22T21:58:33.712Z,9.51
2023-04-22T22:03:36.615Z,9.47
2023-04-22T22:08:39.185Z,9.42
2023-04-22T22:13:41.351Z,9.38
2023-04-22T22:18:45.991Z,9.34
2023-04-22T22:23:47.872Z,9.31
2023-04-22T22:28:50.234Z,9.27
2023-04-22T22:33:52.067Z,9.25
2023-04-22T22:38:54.065Z,9.23
2023-04-22T22:43:56.161Z,9.20
2023-04-22T22:48:59.434Z,9.14
2023-04-22T22:54:01.850Z,9.09
2023-04-22T22:59:03.887Z,9.04
2023-04-22T23:04:06.492Z,9.03
2023-04-22T23:09:10.896Z,9.03
2023-04-22T23:14:19.457Z,9.02
2023-04-22T23:19:22.020Z,8.99
2023-04-22T23:24:24.257Z,8.95
2023-04-22T23:29:26.853Z,8.88
2023-04-22T23:34:31.343Z,8.81
2023-04-22T23:39:34.129Z,8.75
2023-04-22T23:44:36.750Z,8.70
2023-04-22T23:49:41.564Z,8.66
2023-04-22T23:54:45.268Z,8.60
2023-04-22T23:59:47.862Z,8.53
